sensor_id;sensor_type;location;lat;lon;timestamp;pressure;altitude;pressure_sealevel;temperature;humidity
56825;BME280;42705;50.326;18.772;2023-02-03T00:05:17;99097.05;;;-0.17;68.37
56825;BME280;42705;50.326;18.772;2023-02-03T00:10:38;99097.54;;;-0.22;68.58
56825;BME280;42705;50.326;18.772;2023-02-03T00:16:00;99102.33;;;-0.26;68.22
56825;BME280;42705;50.326;18.772;2023-02-03T00:21:26;99107.10;;;-0.25;68.22
56825;BME280;42705;50.326;18.772;2023-02-03T00:26:47;99115.13;;;-0.24;68.44
56825;BME280;42705;50.326;18.772;2023-02-03T00:32:08;99118.80;;;-0.26;68.26
56825;BME280;42705;50.326;18.772;2023-02-03T00:37:30;99128.02;;;-0.29;68.11
56825;BME280;42705;50.326;18.772;2023-02-03T00:42:51;99132.17;;;-0.35;67.99
56825;BME280;42705;50.326;18.772;2023-02-03T00:48:13;99122.89;;;-0.39;67.98
56825;BME280;42705;50.326;18.772;2023-02-03T00:53:35;99129.14;;;-0.46;68.50
56825;BME280;42705;50.326;18.772;2023-02-03T00:58:57;99128.13;;;-0.47;68.16
56825;BME280;42705;50.326;18.772;2023-02-03T01:04:18;99125.80;;;-0.49;68.43
56825;BME280;42705;50.326;18.772;2023-02-03T01:09:39;99120.91;;;-0.56;68.40
56825;BME280;42705;50.326;18.772;2023-02-03T01:15:01;99120.00;;;-0.65;68.07
56825;BME280;42705;50.326;18.772;2023-02-03T01:20:22;99115.35;;;-0.75;68.32
56825;BME280;42705;50.326;18.772;2023-02-03T01:25:44;99109.97;;;-0.78;68.10
56825;BME280;42705;50.326;18.772;2023-02-03T01:31:14;99111.44;;;-0.81;68.56
56825;BME280;42705;50.326;18.772;2023-02-03T01:36:36;99108.70;;;-0.81;68.17
56825;BME280;42705;50.326;18.772;2023-02-03T01:41:57;99108.27;;;-0.79;68.31
56825;BME280;42705;50.326;18.772;2023-02-03T01:47:30;99105.79;;;-0.81;68.32
56825;BME280;42705;50.326;18.772;2023-02-03T01:52:58;99105.85;;;-0.93;68.52
56825;BME280;42705;50.326;18.772;2023-02-03T01:58:23;99101.80;;;-1.11;68.52
56825;BME280;42705;50.326;18.772;2023-02-03T02:03:50;99100.52;;;-1.30;68.49
56825;BME280;42705;50.326;18.772;2023-02-03T02:09:14;99096.98;;;-1.38;68.74
56825;BME280;42705;50.326;18.772;2023-02-03T02:14:37;99087.55;;;-1.37;68.98
56825;BME280;42705;50.326;18.772;2023-02-03T02:21:11;99085.60;;;-1.40;69.21
56825;BME280;42705;50.326;18.772;2023-02-03T02:37:57;99058.98;;;-1.44;69.39
56825;BME280;42705;50.326;18.772;2023-02-03T02:43:23;99038.77;;;-1.45;69.76
56825;BME280;42705;50.326;18.772;2023-02-03T02:48:51;99030.70;;;-1.49;69.68
56825;BME280;42705;50.326;18.772;2023-02-03T02:54:17;99027.64;;;-1.55;69.82
56825;BME280;42705;50.326;18.772;2023-02-03T02:59:40;99027.19;;;-1.57;70.05
56825;BME280;42705;50.326;18.772;2023-02-03T03:05:05;99034.14;;;-1.55;70.07
56825;BME280;42705;50.326;18.772;2023-02-03T03:10:31;99049.41;;;-1.55;69.91
56825;BME280;42705;50.326;18.772;2023-02-03T03:15:55;99052.23;;;-1.59;70.01
56825;BME280;42705;50.326;18.772;2023-02-03T03:21:22;99046.05;;;-1.52;70.08
56825;BME280;42705;50.326;18.772;2023-02-03T03:32:06;99036.73;;;-1.45;69.89
56825;BME280;42705;50.326;18.772;2023-02-03T03:37:40;99024.43;;;-1.57;69.73
56825;BME280;42705;50.326;18.772;2023-02-03T03:43:19;99004.90;;;-1.62;69.90
56825;BME280;42705;50.326;18.772;2023-02-03T03:48:57;98988.96;;;-1.67;69.99
56825;BME280;42705;50.326;18.772;2023-02-03T03:54:22;98987.39;;;-1.77;70.31
56825;BME280;42705;50.326;18.772;2023-02-03T03:59:47;98986.00;;;-1.87;70.39
56825;BME280;42705;50.326;18.772;2023-02-03T04:05:09;98986.44;;;-1.96;70.47
56825;BME280;42705;50.326;18.772;2023-02-03T04:10:34;98982.17;;;-1.96;70.58
56825;BME280;42705;50.326;18.772;2023-02-03T04:15:56;98973.75;;;-1.95;70.87
56825;BME280;42705;50.326;18.772;2023-02-03T04:21:17;98970.66;;;-1.95;70.88
56825;BME280;42705;50.326;18.772;2023-02-03T04:26:38;98962.16;;;-1.97;70.91
56825;BME280;42705;50.326;18.772;2023-02-03T04:32:00;98959.30;;;-1.93;71.22
56825;BME280;42705;50.326;18.772;2023-02-03T04:37:21;98949.97;;;-1.80;71.27
56825;BME280;42705;50.326;18.772;2023-02-03T04:42:43;98946.24;;;-1.70;71.25
56825;BME280;42705;50.326;18.772;2023-02-03T04:48:04;98939.42;;;-1.65;71.21
56825;BME280;42705;50.326;18.772;2023-02-03T04:53:26;98929.75;;;-1.69;70.99
56825;BME280;42705;50.326;18.772;2023-02-03T04:58:47;98925.25;;;-1.67;71.23
56825;BME280;42705;50.326;18.772;2023-02-03T05:04:08;98915.32;;;-1.63;71.37
56825;BME280;42705;50.326;18.772;2023-02-03T05:09:29;98904.39;;;-1.64;71.24
56825;BME280;42705;50.326;18.772;2023-02-03T05:14:50;98884.64;;;-1.67;71.34
56825;BME280;42705;50.326;18.772;2023-02-03T05:20:12;98872.63;;;-1.66;71.22
56825;BME280;42705;50.326;18.772;2023-02-03T05:25:33;98867.21;;;-1.63;71.61
56825;BME280;42705;50.326;18.772;2023-02-03T05:30:57;98857.21;;;-1.66;71.32
56825;BME280;42705;50.326;18.772;2023-02-03T05:36:19;98850.98;;;-1.75;71.53
56825;BME280;42705;50.326;18.772;2023-02-03T05:41:40;98842.11;;;-1.76;71.50
56825;BME280;42705;50.326;18.772;2023-02-03T05:47:13;98835.44;;;-1.70;71.76
56825;BME280;42705;50.326;18.772;2023-02-03T05:52:34;98836.77;;;-1.69;72.08
56825;BME280;42705;50.326;18.772;2023-02-03T05:57:56;98820.91;;;-1.67;71.97
56825;BME280;42705;50.326;18.772;2023-02-03T06:03:17;98822.49;;;-1.58;72.11
56825;BME280;42705;50.326;18.772;2023-02-03T06:08:39;98816.43;;;-1.51;71.73
56825;BME280;42705;50.326;18.772;2023-02-03T06:14:02;98810.89;;;-1.50;71.79
56825;BME280;42705;50.326;18.772;2023-02-03T06:19:24;98802.56;;;-1.52;71.69
56825;BME280;42705;50.326;18.772;2023-02-03T06:24:45;98798.11;;;-1.56;71.32
56825;BME280;42705;50.326;18.772;2023-02-03T06:30:08;98792.09;;;-1.56;71.42
56825;BME280;42705;50.326;18.772;2023-02-03T06:35:31;98784.02;;;-1.56;71.13
56825;BME280;42705;50.326;18.772;2023-02-03T06:40:52;98776.88;;;-1.62;71.06
56825;BME280;42705;50.326;18.772;2023-02-03T06:46:13;98770.92;;;-1.68;71.11
56825;BME280;42705;50.326;18.772;2023-02-03T06:51:35;98763.56;;;-1.68;71.11
56825;BME280;42705;50.326;18.772;2023-02-03T06:56:57;98753.91;;;-1.62;70.69
56825;BME280;42705;50.326;18.772;2023-02-03T07:02:18;98746.48;;;-1.55;70.73
56825;BME280;42705;50.326;18.772;2023-02-03T07:07:39;98736.11;;;-1.52;70.46
56825;BME280;42705;50.326;18.772;2023-02-03T07:13:05;98721.11;;;-1.50;70.13
56825;BME280;42705;50.326;18.772;2023-02-03T07:18:27;98709.16;;;-1.51;70.07
56825;BME280;42705;50.326;18.772;2023-02-03T07:23:49;98702.47;;;-1.51;69.56
56825;BME280;42705;50.326;18.772;2023-02-03T07:29:11;98701.96;;;-1.42;69.67
56825;BME280;42705;50.326;18.772;2023-02-03T07:34:32;98704.40;;;-1.33;69.79
56825;BME280;42705;50.326;18.772;2023-02-03T07:39:54;98692.84;;;-1.31;69.24
56825;BME280;42705;50.326;18.772;2023-02-03T07:45:16;98688.33;;;-1.26;69.31
56825;BME280;42705;50.326;18.772;2023-02-03T07:50:39;98679.61;;;-1.17;69.03
56825;BME280;42705;50.326;18.772;2023-02-03T07:56:01;98667.63;;;-1.05;69.18
56825;BME280;42705;50.326;18.772;2023-02-03T08:01:23;98654.60;;;-0.96;68.86
56825;BME280;42705;50.326;18.772;2023-02-03T08:06:45;98653.70;;;-0.91;68.65
56825;BME280;42705;50.326;18.772;2023-02-03T08:12:06;98644.75;;;-0.90;68.53
56825;BME280;42705;50.326;18.772;2023-02-03T08:17:27;98639.91;;;-0.81;68.50
56825;BME280;42705;50.326;18.772;2023-02-03T08:22:49;98633.59;;;-0.73;68.34
56825;BME280;42705;50.326;18.772;2023-02-03T08:28:10;98630.54;;;-0.69;68.26
56825;BME280;42705;50.326;18.772;2023-02-03T08:33:31;98614.08;;;-0.73;68.43
56825;BME280;42705;50.326;18.772;2023-02-03T08:38:53;98604.90;;;-0.80;68.97
56825;BME280;42705;50.326;18.772;2023-02-03T08:44:14;98592.38;;;-0.92;69.70
56825;BME280;42705;50.326;18.772;2023-02-03T08:49:36;98581.11;;;-1.06;70.81
56825;BME280;42705;50.326;18.772;2023-02-03T08:54:59;98568.88;;;-1.13;71.92
56825;BME280;42705;50.326;18.772;2023-02-03T09:00:21;98563.95;;;-1.10;72.37
56825;BME280;42705;50.326;18.772;2023-02-03T09:05:42;98554.53;;;-1.06;72.59
56825;BME280;42705;50.326;18.772;2023-02-03T09:11:08;98539.38;;;-1.00;73.20
56825;BME280;42705;50.326;18.772;2023-02-03T09:16:29;98518.57;;;-0.99;73.32
56825;BME280;42705;50.326;18.772;2023-02-03T09:21:51;98504.83;;;-0.98;73.65
56825;BME280;42705;50.326;18.772;2023-02-03T09:27:12;98490.20;;;-0.97;73.87
56825;BME280;42705;50.326;18.772;2023-02-03T09:32:33;98468.75;;;-0.93;74.08
56825;BME280;42705;50.326;18.772;2023-02-03T09:37:55;98456.55;;;-0.92;74.53
56825;BME280;42705;50.326;18.772;2023-02-03T09:49:06;98421.53;;;-0.68;75.05
56825;BME280;42705;50.326;18.772;2023-02-03T09:55:23;98397.97;;;-0.63;75.16
56825;BME280;42705;50.326;18.772;2023-02-03T10:00:26;98368.83;;;-0.64;75.33
56825;BME280;42705;50.326;18.772;2023-02-03T10:22:27;98319.96;;;-0.57;76.61
56825;BME280;42705;50.326;18.772;2023-02-03T10:27:52;98304.61;;;-0.55;76.62
56825;BME280;42705;50.326;18.772;2023-02-03T10:33:17;98284.39;;;-0.52;76.93
56825;BME280;42705;50.326;18.772;2023-02-03T10:38:55;98262.36;;;-0.50;76.94
56825;BME280;42705;50.326;18.772;2023-02-03T10:44:19;98256.86;;;-0.47;77.06
56825;BME280;42705;50.326;18.772;2023-02-03T10:49:42;98232.27;;;-0.46;77.53
56825;BME280;42705;50.326;18.772;2023-02-03T10:55:07;98215.84;;;-0.46;77.76
56825;BME280;42705;50.326;18.772;2023-02-03T11:00:54;98195.69;;;-0.42;78.08
56825;BME280;42705;50.326;18.772;2023-02-03T11:06:17;98182.36;;;-0.39;78.13
56825;BME280;42705;50.326;18.772;2023-02-03T11:11:38;98167.02;;;-0.41;78.32
56825;BME280;42705;50.326;18.772;2023-02-03T11:17:13;98135.92;;;-0.37;78.58
56825;BME280;42705;50.326;18.772;2023-02-03T11:22:37;98115.61;;;-0.32;78.77
56825;BME280;42705;50.326;18.772;2023-02-03T11:28:04;98090.85;;;-0.28;78.87
56825;BME280;42705;50.326;18.772;2023-02-03T11:33:28;98076.25;;;-0.22;78.89
56825;BME280;42705;50.326;18.772;2023-02-03T11:38:49;98064.48;;;-0.20;79.31
56825;BME280;42705;50.326;18.772;2023-02-03T11:44:24;98037.87;;;-0.20;79.40
56825;BME280;42705;50.326;18.772;2023-02-03T11:50:28;98015.79;;;-0.14;79.41
56825;BME280;42705;50.326;18.772;2023-02-03T11:56:08;98001.15;;;-0.14;79.57
56825;BME280;42705;50.326;18.772;2023-02-03T12:29:57;97896.89;;;-0.04;80.53
56825;BME280;42705;50.326;18.772;2023-02-03T12:35:24;97881.54;;;0.01;80.86
56825;BME280;42705;50.326;18.772;2023-02-03T12:40:57;97863.95;;;0.02;81.01
56825;BME280;42705;50.326;18.772;2023-02-03T12:51:57;97841.76;;;0.06;80.96
56825;BME280;42705;50.326;18.772;2023-02-03T12:57:26;97841.32;;;0.02;81.07
56825;BME280;42705;50.326;18.772;2023-02-03T13:08:41;97809.02;;;-0.10;81.37
56825;BME280;42705;50.326;18.772;2023-02-03T13:14:22;97787.16;;;-0.18;81.59
56825;BME280;42705;50.326;18.772;2023-02-03T13:20:19;97769.25;;;-0.23;81.57
56825;BME280;42705;50.326;18.772;2023-02-03T13:42:37;97714.92;;;-0.22;82.67
56825;BME280;42705;50.326;18.772;2023-02-03T13:53:36;97696.64;;;-0.14;82.87
56825;BME280;42705;50.326;18.772;2023-02-03T13:59:04;97685.55;;;-0.12;83.04
56825;BME280;42705;50.326;18.772;2023-02-03T14:10:08;97650.91;;;-0.07;83.14
56825;BME280;42705;50.326;18.772;2023-02-03T14:15:33;97638.58;;;-0.02;83.44
56825;BME280;42705;50.326;18.772;2023-02-03T14:21:17;97614.97;;;0.03;83.52
56825;BME280;42705;50.326;18.772;2023-02-03T14:26:41;97609.58;;;0.06;84.01
56825;BME280;42705;50.326;18.772;2023-02-03T14:32:06;97597.51;;;0.13;83.85
56825;BME280;42705;50.326;18.772;2023-02-03T14:37:29;97578.73;;;0.20;84.05
56825;BME280;42705;50.326;18.772;2023-02-03T14:54:19;97612.09;;;0.35;83.71
56825;BME280;42705;50.326;18.772;2023-02-03T15:05:46;97605.45;;;0.43;84.11
56825;BME280;42705;50.326;18.772;2023-02-03T15:11:31;97610.60;;;0.43;84.13
56825;BME280;42705;50.326;18.772;2023-02-03T15:17:10;97608.32;;;0.49;84.34
56825;BME280;42705;50.326;18.772;2023-02-03T15:22:36;97605.81;;;0.59;84.51
56825;BME280;42705;50.326;18.772;2023-02-03T15:28:19;97585.48;;;0.70;84.70
56825;BME280;42705;50.326;18.772;2023-02-03T15:33:41;97605.80;;;0.75;84.39
56825;BME280;42705;50.326;18.772;2023-02-03T15:39:15;97617.36;;;0.85;84.64
56825;BME280;42705;50.326;18.772;2023-02-03T15:45:15;97613.83;;;1.00;84.42
56825;BME280;42705;50.326;18.772;2023-02-03T15:51:01;97619.38;;;1.16;84.70
56825;BME280;42705;50.326;18.772;2023-02-03T16:07:35;97637.43;;;1.65;84.77
56825;BME280;42705;50.326;18.772;2023-02-03T16:13:25;97637.13;;;1.80;84.62
56825;BME280;42705;50.326;18.772;2023-02-03T16:18:55;97645.09;;;1.95;84.54
56825;BME280;42705;50.326;18.772;2023-02-03T16:24:37;97648.16;;;2.03;84.55
56825;BME280;42705;50.326;18.772;2023-02-03T16:35:43;97633.90;;;2.17;84.11
56825;BME280;42705;50.326;18.772;2023-02-03T16:41:23;97641.52;;;2.19;83.99
56825;BME280;42705;50.326;18.772;2023-02-03T16:47:20;97644.13;;;2.19;83.80
56825;BME280;42705;50.326;18.772;2023-02-03T16:53:02;97651.77;;;2.18;83.70
56825;BME280;42705;50.326;18.772;2023-02-03T16:58:23;97650.98;;;2.14;83.68
56825;BME280;42705;50.326;18.772;2023-02-03T17:03:45;97661.05;;;2.15;83.74
56825;BME280;42705;50.326;18.772;2023-02-03T17:09:06;97659.23;;;2.20;83.45
56825;BME280;42705;50.326;18.772;2023-02-03T17:14:28;97674.76;;;2.22;83.62
56825;BME280;42705;50.326;18.772;2023-02-03T17:19:50;97681.41;;;2.23;83.63
56825;BME280;42705;50.326;18.772;2023-02-03T17:25:11;97684.88;;;2.27;83.44
56825;BME280;42705;50.326;18.772;2023-02-03T17:30:35;97698.03;;;2.35;83.44
56825;BME280;42705;50.326;18.772;2023-02-03T17:36:05;97701.34;;;2.37;83.02
56825;BME280;42705;50.326;18.772;2023-02-03T17:41:27;97712.67;;;2.42;83.55
56825;BME280;42705;50.326;18.772;2023-02-03T17:46:48;97715.98;;;2.47;83.17
56825;BME280;42705;50.326;18.772;2023-02-03T17:52:10;97709.86;;;2.45;83.26
56825;BME280;42705;50.326;18.772;2023-02-03T17:57:35;97721.11;;;2.44;82.86
56825;BME280;42705;50.326;18.772;2023-02-03T18:02:57;97742.09;;;2.43;82.69
56825;BME280;42705;50.326;18.772;2023-02-03T18:08:18;97736.90;;;2.36;82.87
56825;BME280;42705;50.326;18.772;2023-02-03T18:13:42;97740.27;;;2.31;82.74
56825;BME280;42705;50.326;18.772;2023-02-03T18:19:06;97740.59;;;2.32;82.76
56825;BME280;42705;50.326;18.772;2023-02-03T18:24:28;97751.29;;;2.29;82.57
56825;BME280;42705;50.326;18.772;2023-02-03T18:29:50;97760.36;;;2.23;82.81
56825;BME280;42705;50.326;18.772;2023-02-03T18:35:12;97764.48;;;2.20;82.96
56825;BME280;42705;50.326;18.772;2023-02-03T18:40:37;97774.04;;;2.16;82.78
56825;BME280;42705;50.326;18.772;2023-02-03T18:45:58;97775.80;;;2.13;82.69
56825;BME280;42705;50.326;18.772;2023-02-03T18:51:21;97787.21;;;2.13;82.66
56825;BME280;42705;50.326;18.772;2023-02-03T18:56:42;97796.17;;;2.12;82.73
56825;BME280;42705;50.326;18.772;2023-02-03T19:02:09;97806.49;;;2.10;82.73
56825;BME280;42705;50.326;18.772;2023-02-03T19:07:31;97797.63;;;2.06;82.64
56825;BME280;42705;50.326;18.772;2023-02-03T19:12:53;97797.15;;;2.00;82.47
56825;BME280;42705;50.326;18.772;2023-02-03T19:18:17;97794.59;;;1.92;82.35
56825;BME280;42705;50.326;18.772;2023-02-03T19:23:40;97789.55;;;1.87;82.38
56825;BME280;42705;50.326;18.772;2023-02-03T19:29:02;97785.27;;;1.82;82.28
56825;BME280;42705;50.326;18.772;2023-02-03T19:34:23;97785.05;;;1.75;82.19
56825;BME280;42705;50.326;18.772;2023-02-03T19:39:44;97783.05;;;1.73;82.21
56825;BME280;42705;50.326;18.772;2023-02-03T19:45:10;97781.77;;;1.72;82.51
56825;BME280;42705;50.326;18.772;2023-02-03T19:50:34;97790.27;;;1.71;82.42
56825;BME280;42705;50.326;18.772;2023-02-03T19:55:56;97793.79;;;1.75;82.76
56825;BME280;42705;50.326;18.772;2023-02-03T20:01:22;97802.64;;;1.82;82.77
56825;BME280;42705;50.326;18.772;2023-02-03T20:06:43;97803.74;;;1.86;82.74
56825;BME280;42705;50.326;18.772;2023-02-03T20:12:06;97795.10;;;1.92;82.63
56825;BME280;42705;50.326;18.772;2023-02-03T20:17:28;97795.54;;;1.93;82.69
56825;BME280;42705;50.326;18.772;2023-02-03T20:22:50;97787.83;;;1.95;82.89
56825;BME280;42705;50.326;18.772;2023-02-03T20:28:13;97790.67;;;2.01;82.81
56825;BME280;42705;50.326;18.772;2023-02-03T20:33:34;97782.71;;;2.05;82.94
56825;BME280;42705;50.326;18.772;2023-02-03T20:38:56;97778.73;;;2.08;82.64
56825;BME280;42705;50.326;18.772;2023-02-03T20:44:17;97778.58;;;2.13;82.98
56825;BME280;42705;50.326;18.772;2023-02-03T20:49:39;97775.77;;;2.16;82.62
56825;BME280;42705;50.326;18.772;2023-02-03T20:55:11;97770.16;;;2.17;82.73
56825;BME280;42705;50.326;18.772;2023-02-03T21:00:33;97772.66;;;2.22;82.63
56825;BME280;42705;50.326;18.772;2023-02-03T21:05:54;97777.19;;;2.23;82.96
56825;BME280;42705;50.326;18.772;2023-02-03T21:11:18;97773.78;;;2.23;82.95
56825;BME280;42705;50.326;18.772;2023-02-03T21:16:39;97780.17;;;2.28;83.07
56825;BME280;42705;50.326;18.772;2023-02-03T21:22:16;97774.38;;;2.35;83.05
56825;BME280;42705;50.326;18.772;2023-02-03T21:27:44;97779.50;;;2.38;82.89
56825;BME280;42705;50.326;18.772;2023-02-03T21:38:49;97768.74;;;2.49;82.84
56825;BME280;42705;50.326;18.772;2023-02-03T21:44:24;97765.32;;;2.51;83.01
56825;BME280;42705;50.326;18.772;2023-02-03T21:49:46;97762.66;;;2.55;83.06
56825;BME280;42705;50.326;18.772;2023-02-03T21:55:10;97768.73;;;2.56;83.04
56825;BME280;42705;50.326;18.772;2023-02-03T22:00:37;97770.87;;;2.56;82.90
56825;BME280;42705;50.326;18.772;2023-02-03T22:11:34;97757.32;;;2.65;82.91
56825;BME280;42705;50.326;18.772;2023-02-03T22:16:55;97759.06;;;2.65;83.11
56825;BME280;42705;50.326;18.772;2023-02-03T22:22:17;97764.57;;;2.65;82.83
56825;BME280;42705;50.326;18.772;2023-02-03T22:27:38;97762.08;;;2.66;83.00
56825;BME280;42705;50.326;18.772;2023-02-03T22:32:59;97764.36;;;2.63;82.82
56825;BME280;42705;50.326;18.772;2023-02-03T22:38:22;97768.61;;;2.58;83.07
56825;BME280;42705;50.326;18.772;2023-02-03T22:43:43;97768.15;;;2.60;82.77
56825;BME280;42705;50.326;18.772;2023-02-03T22:49:04;97774.17;;;2.63;82.85
56825;BME280;42705;50.326;18.772;2023-02-03T22:54:25;97776.19;;;2.64;83.01
56825;BME280;42705;50.326;18.772;2023-02-03T22:59:47;97779.77;;;2.67;83.13
56825;BME280;42705;50.326;18.772;2023-02-03T23:05:09;97779.77;;;2.69;82.97
56825;BME280;42705;50.326;18.772;2023-02-03T23:10:30;97764.93;;;2.67;82.71
56825;BME280;42705;50.326;18.772;2023-02-03T23:15:51;97766.55;;;2.66;83.00
56825;BME280;42705;50.326;18.772;2023-02-03T23:21:13;97756.89;;;2.66;82.93
56825;BME280;42705;50.326;18.772;2023-02-03T23:26:34;97752.69;;;2.59;82.74
56825;BME280;42705;50.326;18.772;2023-02-03T23:31:55;97744.15;;;2.55;82.84
56825;BME280;42705;50.326;18.772;2023-02-03T23:37:17;97743.09;;;2.56;82.91
56825;BME280;42705;50.326;18.772;2023-02-03T23:42:39;97733.35;;;2.55;82.99
56825;BME280;42705;50.326;18.772;2023-02-03T23:48:00;97734.11;;;2.56;82.86
56825;BME280;42705;50.326;18.772;2023-02-03T23:53:21;97728.66;;;2.57;82.84
56825;BME280;42705;50.326;18.772;2023-02-03T23:58:43;97734.39;;;2.57;83.10
